createdAt,value
2023-05-06T00:03:55.671Z,4.00
2023-05-06T00:08:58.464Z,3.60
2023-05-06T00:14:01.018Z,3.30
2023-05-06T00:19:04.037Z,3.60
2023-05-06T00:24:07.056Z,3.30
2023-05-06T00:29:09.720Z,3.30
2023-05-06T00:34:12.271Z,3.10
2023-05-06T00:39:14.867Z,3.10
2023-05-06T00:44:17.768Z,2.70
2023-05-06T00:49:21.072Z,3.40
2023-05-06T00:54:26.040Z,3.00
2023-05-06T00:59:28.735Z,3.10
2023-05-06T01:04:31.858Z,2.90
2023-05-06T01:09:37.483Z,3.10
2023-05-06T01:15:01.341Z,3.00
2023-05-06T01:20:06.236Z,2.90
2023-05-06T01:25:19.124Z,2.60
2023-05-06T01:30:25.006Z,2.60
2023-05-06T01:35:44.154Z,3.10
2023-05-06T01:40:54.228Z,3.40
2023-05-06T01:45:57.810Z,3.00
2023-05-06T01:51:00.468Z,2.70
2023-05-06T01:56:03.345Z,2.30
2023-05-06T02:01:05.905Z,2.60
2023-05-06T02:06:08.648Z,2.60
2023-05-06T02:11:11.154Z,2.70
2023-05-06T02:16:13.670Z,2.80
2023-05-06T02:21:16.198Z,2.30
2023-05-06T02:26:18.737Z,2.20
2023-05-06T02:31:21.440Z,2.60
2023-05-06T02:36:24.035Z,2.60
2023-05-06T02:41:26.619Z,2.70
2023-05-06T02:46:29.132Z,2.50
2023-05-06T02:51:31.816Z,2.60
2023-05-06T02:56:35.268Z,2.50
2023-05-06T03:01:37.887Z,2.90
2023-05-06T03:06:40.770Z,2.50
2023-05-06T03:11:43.951Z,2.60
2023-05-06T03:16:46.505Z,2.40
2023-05-06T03:21:49.393Z,2.80
2023-05-06T03:26:53.115Z,2.80
2023-05-06T03:36:59.198Z,2.70
2023-05-06T03:42:02.300Z,3.00
2023-05-06T03:47:04.857Z,2.60
2023-05-06T03:52:07.435Z,2.30
2023-05-06T03:57:10.198Z,2.50
2023-05-06T04:02:12.891Z,2.20
2023-05-06T04:07:15.664Z,2.60
2023-05-06T04:12:18.223Z,2.90
2023-05-06T04:17:20.796Z,2.00
2023-05-06T04:22:23.654Z,2.50
2023-05-06T04:27:29.755Z,2.50
2023-05-06T04:32:34.120Z,2.10
2023-05-06T04:37:36.766Z,2.70
2023-05-06T04:42:39.564Z,3.30
2023-05-06T04:47:43.313Z,3.60
2023-05-06T04:52:45.914Z,2.40
2023-05-06T04:57:48.586Z,2.50
2023-05-06T05:02:51.481Z,2.40
2023-05-06T05:07:55.580Z,2.70
2023-05-06T05:12:58.317Z,2.70
2023-05-06T05:18:00.973Z,2.70
2023-05-06T05:23:03.780Z,2.70
2023-05-06T05:28:06.265Z,2.80
2023-05-06T05:33:09.233Z,2.70
2023-05-06T05:38:13.935Z,2.20
2023-05-06T05:43:16.559Z,2.50
2023-05-06T05:48:19.091Z,2.40
2023-05-06T05:53:21.634Z,2.60
2023-05-06T05:58:24.139Z,2.40
2023-05-06T06:03:27.557Z,2.00
2023-05-06T06:08:31.889Z,2.90
2023-05-06T06:13:34.441Z,2.70
2023-05-06T06:18:37.012Z,2.00
2023-05-06T06:23:39.708Z,2.50
2023-05-06T06:28:44.432Z,2.00
2023-05-06T06:33:46.963Z,2.10
2023-05-06T06:38:49.497Z,2.10
2023-05-06T06:43:52.085Z,2.30
2023-05-06T06:48:55.134Z,2.10
2023-05-06T06:53:57.748Z,2.20
2023-05-06T06:59:00.529Z,2.10
2023-05-06T07:04:06.559Z,2.30
2023-05-06T07:09:10.266Z,2.60
2023-05-06T07:14:12.860Z,2.50
2023-05-06T07:19:15.439Z,2.00
2023-05-06T07:24:18.032Z,2.10
2023-05-06T07:29:20.632Z,2.00
2023-05-06T07:34:23.229Z,2.00
2023-05-06T07:39:25.885Z,2.50
2023-05-06T07:44:28.526Z,3.10
2023-05-06T07:49:34.085Z,2.90
2023-05-06T07:54:38.236Z,2.80
2023-05-06T07:59:40.791Z,1.90
2023-05-06T08:04:43.619Z,2.30
2023-05-06T08:09:46.535Z,2.60
2023-05-06T08:14:49.146Z,2.00
2023-05-06T08:19:51.776Z,2.30
2023-05-06T08:24:55.084Z,2.60
2023-05-06T08:29:58.727Z,2.40
2023-05-06T08:35:02.317Z,3.80
2023-05-06T08:40:06.508Z,6.40
2023-05-06T08:45:11.488Z,5.60
2023-05-06T08:50:14.274Z,5.60
2023-05-06T08:55:18.833Z,6.80
2023-05-06T09:00:22.058Z,6.80
2023-05-06T09:05:24.639Z,10.90
2023-05-06T09:10:32.945Z,6.80
2023-05-06T09:15:43.166Z,6.70
2023-05-06T09:20:48.452Z,6.80
2023-05-06T09:25:51.287Z,3.30
2023-05-06T09:30:54.300Z,4.10
2023-05-06T09:36:01.722Z,2.40
2023-05-06T09:41:05.067Z,2.40
2023-05-06T09:46:08.938Z,10.90
2023-05-06T09:51:11.594Z,9.80
2023-05-06T09:56:15.561Z,3.00
2023-05-06T10:01:32.705Z,4.80
2023-05-06T10:11:45.514Z,2.70
2023-05-06T10:16:49.047Z,2.50
2023-05-06T10:22:05.598Z,2.20
2023-05-06T10:27:12.091Z,2.60
2023-05-06T10:32:17.309Z,2.20
2023-05-06T10:37:25.803Z,3.60
2023-05-06T10:42:33.859Z,3.30
2023-05-06T10:47:58.193Z,2.70
2023-05-06T10:53:00.814Z,2.20
2023-05-06T10:58:18.817Z,2.40
2023-05-06T11:03:24.060Z,2.80
2023-05-06T11:08:27.358Z,2.70
2023-05-06T11:13:35.053Z,2.60
2023-05-06T11:18:41.783Z,2.80
2023-05-06T11:23:52.012Z,2.30
2023-05-06T11:28:55.758Z,2.30
2023-05-06T11:34:01.721Z,2.20
2023-05-06T11:39:10.496Z,2.50
2023-05-06T11:44:24.551Z,1.80
2023-05-06T11:49:28.547Z,2.20
2023-05-06T11:54:39.036Z,2.30
2023-05-06T11:59:41.869Z,2.80
2023-05-06T12:04:46.853Z,2.60
2023-05-06T12:09:50.444Z,2.30
2023-05-06T12:14:54.022Z,2.20
2023-05-06T12:19:56.663Z,2.10
2023-05-06T12:25:15.435Z,2.30
2023-05-06T12:30:29.793Z,2.50
2023-05-06T12:35:32.836Z,2.20
2023-05-06T12:40:36.120Z,2.60
2023-05-06T12:45:39.883Z,2.60
2023-05-06T12:50:44.509Z,3.00
2023-05-06T12:55:47.061Z,2.70
2023-05-06T13:00:49.636Z,2.10
2023-05-06T13:05:52.186Z,2.50
2023-05-06T13:10:54.759Z,2.60
2023-05-06T13:15:57.470Z,2.30
2023-05-06T13:21:00.582Z,2.70
2023-05-06T13:26:06.225Z,3.50
2023-05-06T13:31:09.079Z,2.80
2023-05-06T13:36:11.833Z,2.50
2023-05-06T13:41:14.979Z,2.20
2023-05-06T13:46:17.661Z,2.60
2023-05-06T13:51:20.383Z,2.20
2023-05-06T13:56:22.956Z,2.90
2023-05-06T14:01:25.666Z,2.80
2023-05-06T14:06:29.312Z,3.00
2023-05-06T14:11:31.964Z,2.40
2023-05-06T14:16:34.565Z,2.50
2023-05-06T14:21:37.157Z,2.90
2023-05-06T14:26:40.415Z,2.90
2023-05-06T14:31:43.019Z,2.60
2023-05-06T14:36:45.632Z,2.90
2023-05-06T14:41:50.694Z,3.30
2023-05-06T14:46:53.267Z,4.00
2023-05-06T14:51:55.930Z,3.70
2023-05-06T14:57:01.271Z,3.10
2023-05-06T15:02:07.221Z,3.00
2023-05-06T15:07:10.733Z,3.30
2023-05-06T15:12:14.417Z,2.60
2023-05-06T15:17:17.002Z,2.50
2023-05-06T15:22:19.534Z,3.00
2023-05-06T15:27:22.109Z,3.00
2023-05-06T15:32:24.858Z,2.80
2023-05-06T15:37:27.864Z,2.60
2023-05-06T15:42:32.534Z,2.20
2023-05-06T15:47:35.270Z,2.30
2023-05-06T15:52:37.937Z,2.40
2023-05-06T15:57:42.984Z,2.20
2023-05-06T16:02:45.609Z,2.20
2023-05-06T16:07:48.491Z,2.30
2023-05-06T16:12:51.622Z,2.40
2023-05-06T16:17:54.329Z,2.40
2023-05-06T16:22:56.937Z,2.50
2023-05-06T16:27:59.747Z,3.20
2023-05-06T16:33:03.878Z,2.50
2023-05-06T16:38:06.682Z,2.30
2023-05-06T16:43:09.786Z,2.90
2023-05-06T16:48:16.933Z,2.50
2023-05-06T16:53:19.715Z,2.60
2023-05-06T16:58:22.376Z,2.50
2023-05-06T17:03:25.129Z,3.20
2023-05-06T17:08:27.878Z,3.50
2023-05-06T17:13:31.524Z,3.30
2023-05-06T17:18:34.276Z,4.10
2023-05-06T17:23:36.822Z,5.10
2023-05-06T17:28:39.354Z,3.90
2023-05-06T17:33:41.880Z,4.20
2023-05-06T17:38:44.468Z,4.30
2023-05-06T17:43:47.463Z,4.20
2023-05-06T17:48:50.141Z,4.60
2023-05-06T17:53:53.237Z,12.30
2023-05-06T17:58:56.468Z,29.80
2023-05-06T18:04:00.168Z,13.60
2023-05-06T18:09:03.062Z,8.50
2023-05-06T18:14:06.309Z,6.30
2023-05-06T18:19:08.855Z,6.40
2023-05-06T18:24:16.527Z,7.50
2023-05-06T18:29:19.729Z,6.40
2023-05-06T18:34:22.351Z,10.10
2023-05-06T18:39:25.281Z,13.10
2023-05-06T18:44:27.908Z,10.30
2023-05-06T18:49:31.102Z,7.10
2023-05-06T18:54:34.241Z,6.70
2023-05-06T18:59:36.733Z,6.20
2023-05-06T19:04:39.430Z,5.20
2023-05-06T19:09:42.942Z,5.70
2023-05-06T19:14:45.468Z,6.30
2023-05-06T19:19:49.030Z,5.30
2023-05-06T19:24:51.993Z,5.00
2023-05-06T19:29:55.128Z,5.30
2023-05-06T19:34:59.487Z,4.70
2023-05-06T19:40:04.231Z,4.70
2023-05-06T19:45:11.979Z,5.50
2023-05-06T19:50:15.106Z,5.00
2023-05-06T19:55:18.408Z,4.70
2023-05-06T20:00:22.014Z,4.60
2023-05-06T20:05:29.470Z,5.10
2023-05-06T20:10:33.539Z,6.20
2023-05-06T20:15:37.689Z,5.40
2023-05-06T20:20:40.922Z,5.50
2023-05-06T20:25:43.547Z,6.80
2023-05-06T20:30:47.913Z,6.10
2023-05-06T20:35:50.851Z,5.80
2023-05-06T20:40:53.444Z,5.60
2023-05-06T20:45:56.237Z,5.70
2023-05-06T20:50:58.895Z,6.40
2023-05-06T20:56:02.154Z,5.60
2023-05-06T21:01:05.099Z,6.10
2023-05-06T21:06:07.977Z,6.10
2023-05-06T21:11:10.764Z,6.00
2023-05-06T21:16:13.469Z,6.00
2023-05-06T21:21:16.007Z,6.00
2023-05-06T21:26:18.553Z,5.90
2023-05-06T21:31:23.368Z,5.40
2023-05-06T21:36:27.030Z,6.90
2023-05-06T21:41:29.662Z,6.40
2023-05-06T21:46:33.614Z,5.70
2023-05-06T21:51:36.224Z,6.50
2023-05-06T21:56:38.891Z,6.10
2023-05-06T22:01:41.640Z,5.70
2023-05-06T22:06:44.186Z,5.60
2023-05-06T22:11:47.074Z,5.50
2023-05-06T22:16:50.151Z,5.80
2023-05-06T22:21:53.744Z,5.20
2023-05-06T22:26:56.447Z,5.40
2023-05-06T22:31:59.375Z,5.90
2023-05-06T22:37:09.506Z,6.30
2023-05-06T22:42:12.045Z,5.50
2023-05-06T22:47:16.342Z,5.20
2023-05-06T22:52:20.118Z,4.70
2023-05-06T22:57:25.745Z,5.20
2023-05-06T23:02:28.564Z,5.30
2023-05-06T23:07:31.257Z,5.00
2023-05-06T23:12:34.547Z,4.50
2023-05-06T23:17:37.749Z,4.40
2023-05-06T23:22:40.443Z,4.10
2023-05-06T23:27:43.378Z,4.80
2023-05-06T23:32:46.208Z,3.90
2023-05-06T23:37:48.783Z,4.50
2023-05-06T23:42:51.365Z,4.60
2023-05-06T23:47:54.384Z,4.90
2023-05-06T23:52:57.148Z,4.10
2023-05-06T23:58:00.390Z,5.30
